AirNav   Everest Fuels
 
 505 users online  

WI95 Binzel Airport
Bristol, Wisconsin, USA

GOING TO BRISTOL?


FAA INFORMATION EFFECTIVE 26 JANUARY 2023

Location

FAA Identifier: WI95
Lat/Long: 42-34-40.0680N 088-00-50.5800W
42-34.667800N 088-00.843000W
42.5777967,-88.0140500
(estimated)
Elevation: 705 ft. / 215 m (estimated)
Variation: 01W (1985)
From city: 2 miles NE of BRISTOL, WI
Time zone: UTC -6 (UTC -5 during Daylight Saving Time)
Zip code: 53104

Airport Operations

Airport use: Private use, PERSONAL USE.
Activation date: 11/1990
Control tower: no
ARTCC: CHICAGO CENTER
FSS: GREEN BAY FLIGHT SERVICE STATION
Attendance: UNATNDD
Wind indicator: yes
Segmented circle: no
Lights: LIRL RY 18/36 BY PHONE REQUEST 262-857-7725.

Airport Communications

WX ASOS at ENW (4 nm E): PHONE 262-652-7730
WX ASOS at UGN (11 nm SE): PHONE 847-782-0876
WX ASOS at RAC (14 nm NE): 121.425 (262-635-0959)
WX AWOS-3 at BUU (15 nm NW): 125.275 (262-757-0907)

Nearby radio navigation aids

VOR radial/distance  VOR name  Freq  Var
OBKr355/21.6NORTHBROOK VOR/DME113.0002W
BAEr158/34.5BADGER VOR/DME116.4002E

 
NDB name  Hdg/Dist  Freq  Var  ID
WAUKE309/11.637903WUG ..- --.

Airport Services

Runway Information

Runway 18/36

Dimensions: 2000 x 40 ft. / 610 x 12 m
Surface: turf
Runway edge lights: low intensity
RUNWAY 18  RUNWAY 36
Traffic pattern: rightleft
Obstructions: 40 ft. trees, 60 ft. from runwaynone
PLINES

Airport Ownership and Management from official FAA records

Ownership: Privately-owned
Owner: CHARLES BINZEL
AIRSTRIP RD., 17001 60TH ST.
BRISTOL, WI 53104
Phone 262-857-7725
Manager: CHARLES BINZEL
AIRSTRIP RD., 17001 60TH ST.
BRISTOL, WI 53104
Phone 262-857-7725

Airport Operational Statistics

Aircraft based on the field: 1
Single engine airplanes: 1
    

Additional Remarks

FOR CD CTC CHICAGO ARTCC AT 630-906-8921.

Instrument Procedures

There are no published instrument procedures at WI95.

Some nearby airports with instrument procedures:

KENW - Kenosha Regional Airport (4 nm E)
KUGN - Waukegan National Airport (11 nm SE)
KRAC - Batten International Airport (14 nm NE)
KBUU - Burlington Municipal Airport (15 nm NW)
C81 - Campbell Airport (15 nm S)
C02 - Grand Geneva Resort Airport (17 nm W)
10C - Galt Field Airport (19 nm SW)
 
Loc | Ops | Rwys | IFR | FBO | Links
Com | Nav | Svcs | Stats | Notes
Area around WI95 (Binzel Airport)
 
Road maps at: MapQuest Bing Google
 
Aerial photo
No photo
 
Sectional chart

 
Airport distance calculator
Flying to Binzel Airport? Find the distance to fly.

From to WI95

Sunrise and sunset
Times for 27-Jan-2023
 Local
(UTC-6)
 Zulu
(UTC)
Morning civil twilight06:4212:42
Sunrise07:1213:12
Sunset16:5822:58
Evening civil twilight17:2823:28

Current date and time
Zulu (UTC)  27-Jan-2023 10:40:14
Local (UTC-6)  27-Jan-2023 04:40:14
 
METAR
KENW 
4nm E 
270953Z AUTO 20008KT 10SM CLR M11/M15 A2989 RMK AO2 SLP136 T11111150
KUGN 
12nm SE 
270951Z AUTO 21010KT 10SM CLR M11/M14 A2991 RMK AO2 SLP147 T11111144
KBUU 
14nm NW 
271015Z AUTO 20005KT 10SM CLR M14/M16 A2986 RMK AO2 T11371161 PWINO
KRAC 
14nm NE 
270953Z AUTO 20007KT 10SM CLR M12/M16 A2991 RMK AO2 SLP139 T11171156
TAF
KENW 
4nm E 
270631Z 2707/2806 23010KT P6SM FEW015 FM271100 20013G24KT P6SM BKN100 FM271500 20018G34KT 2SM -SN OVC030 FM272000 23018G29KT P6SM VCSH OVC011 FM280200 28015KT P6SM SCT070
NOTAMs
Click for the latest NOTAMs
NOTAMs are issued by the DoD/FAA and will open in a separate window not controlled by AirNav.

 

 
 

Would you like to see your business listed on this page?

 If your business provides an interesting product or service to pilots, flight crews, aircraft, or users of the Binzel Airport, you should consider listing it here.  To start the listing process, click on the button below
 
Add a business
 

Other Pages about Binzel Airport

Update a link
 
Copyright © AirNav, LLC. All rights reserved. Privacy Policy  Contact